Relevés horaires Antwerpen / Deurne (Belgique)


Relevés horaires à Antwerpen / Deurne - Dimanche 14 Oct. 2018
Heure UTC1 Température [°C] Vent [km/h] Hum. [%] Pres.4 [hPa] Visi. [Km] Nébu. [octa] Préc.5 [mm] Cond.
2m. Res. Ros. Dir.2 Vit. Moy. Raf.3
23:00 14.7 14.7 10.1 ESE 3.7 3.7 5.6 74 1008.3(0.4/3h) 45 0/8 -- --
22:00 16.2 16.2 10.7 SE 3.7 3.7 3.7 70 1008.2(0.6/3h) 30 7/8 -- --
21:00 15.9 15.9 10.8 SE 1.9 3.7 5.6 72 1008.2(0.8/3h) 30 5/8 -- --
20:00 16.2 16.2 11.2 ESE 3.7 3.7 5.6 72 1007.9(0.9/3h) 30 5/8 -- --
19:00 17.2 17.2 9.2 ESE 3.7 3.7 5.6 59 1007.6(1.0/3h) 30 5/8 -- --
18:00 18.3 18.3 10.6 SE 3.7 14.8 22.2 61 1007.3(0.6/3h) 30 5/8 0/12h
--
17:00 22.9 22.9 9.9 S 5.6 7.4 11.1 44 1007(0.5/3h) 30 5/8 -- --
16:00 23.9 23.9 10.6 S 7.4 9.3 13.0 43 1006.6(0.0/3h) 30 6/8 -- --
15:00 24.2 24.2 10.1 S 9.3 14.8 22.2 41 1006.7(-0.2/3h) 30 6/8 -- --
14:00 24.3 24.3 10.1 S 13.0 13.0 18.5 41 1006.5(-0.8/3h) 30 5/8 -- --
13:00 24.0 24.0 10.4 S 11.1 14.8 22.2 42 1006.6(-1.2/3h) 28 3/8 -- --
12:00 23.4 23.4 10.6 S 13.0 14.8 20.4 44 1006.9(-1.3/3h) 30 2/8 0/6h
--
11:00 22.3 22.3 10.7 S 13.0 13.0 18.5 48 1007.4(-1.0/3h) 30 2/8 -- --
10:00 21.1 21.1 12.2 S 11.1 11.1 16.7 57 1007.8(-0.7/3h) 30 1/8 -- --
09:00 19.0 19.0 12.6 S 7.4 9.3 13.0 66 1008.2(-0.5/3h) 30 1/8 -- --
08:00 16.7 16.7 12.2 SSE 7.4 7.4 9.3 75 1008.4(-0.7/3h) 30 1/8 -- --
07:00 12.7 12.7 11.0 ESE 3.7 3.7 5.6 89 1008.5(-1.0/3h) 30 2/8 -- --
06:00 11.9 11.9 10.9 ESE 3.7 5.6 7.4 94 1008.7(-1.1/3h) 30 1/8 0/12h
--
05:00 12.6 12.6 12.2 ESE 3.7 3.7 3.7 97 1009.1(-1.2/3h) 30 1/8 -- --
04:00 13.1 13.1 9.6 ESE 3.7 3.7 3.7 79 1009.5(-1.6/3h) 30 0/8 -- --
03:00 13.4 13.4 11.0 ESE 3.7 5.6 7.4 85 1009.8(-1.9/3h) 35 0/8 -- --
02:00 13.2 13.2 10.4 SE 3.7 5.6 7.4 83 1010.2(-2.0/3h) 45 0/8 -- --
01:00 13.7 13.7 12.1 ESE 3.7 3.7 5.6 90 1011.1(-1.4/3h) 35 0/8 -- --
00:00 14.5 14.5 12.3 SE 3.7 5.6 7.4 87 1011.7(-1.2/3h) 40 0/8 0/6h
0/24h
--

1 Coordinated Universal Time. Actuellement il est 02:00 locale et 01:00 UTC.

2 Le vent souffle depuis la direction indiquée vers la direction oposée.

3 Les rafales max. sont disponible 40 min après l'heure du relevé.

4 Pour les stations d'altitude (plus de 600m) le géopotentiel du niveau le plus proche de la pression obligatoire est indiqué.

5 Les stations disposant d'un diffuseur peuvent indiquer "trace". Cela signifie que des précipitations ont touchés le sol mais que la quantité est inférieure à 0.1 mm.

Récapitulatif de la journée
Température [°C] Vent [km/h] Ensoleillement4 [h] Precipitations totale5 [mm] Pression [Hpa]
Min1 Max.2 Moy.3 Max. Min Max.
11.3 24.4 7.7 22.2 0 h 0 min 0 1006.5 1011.7

1 Température minimale relevée entre 18:00 UTC la veille et 18:00 UTC le jour donné.

2 Température maximale relevée entre 06:00 UTC le jour donné et 06:00 UTC le lendemain.

3 Vent moyen de la journée basé sur les relevés horaires.

4 Ensoleillement en heures relevé entre 06:00 UTC la veille et 06:00 UTC le jour donné.

5 Précipitations totales tombées entre 06:00 UTC la jour donné et 06:00 UTC le lendemain.

Graphiques horaires